Time;durP1;ratioP1;P1;durP2;ratioP2;P2;SDS_P1;SDS_P2;PMS_P1;PMS_P2;Temp;Humidity;BMP_temperature;BMP_pressure;BME280_temperature;BME280_humidity;BME280_pressure;Samples;Min_cycle;Max_cycle;Signal;HPM_P1;HPM_P2
2023/03/17 00:02:28;;;;;;;3.00;1.60;;;9.40;94.60;;;9.25;81.08;100430.56;5152918;28;20051;-78
2023/03/17 00:05:00;;;;;;;3.42;1.60;;;9.40;94.70;;;9.25;81.32;100428.84;5142614;28;20510;-79
2023/03/17 00:07:35;;;;;;;2.53;1.50;;;9.40;94.70;;;9.22;81.58;100427.88;5147404;28;20053;-79
2023/03/17 00:10:13;;;;;;;;;;;9.30;94.80;;;9.22;81.52;100422.66;5155549;28;20047;-77
2023/03/17 00:12:47;;;;;;;4.15;1.58;;;9.40;94.80;;;9.20;81.43;100433.03;5152514;28;19965;-78
2023/03/17 00:15:21;;;;;;;4.57;1.73;;;9.40;94.90;;;9.19;81.93;100436.47;5160627;28;20054;-78
2023/03/17 00:17:56;;;;;;;2.17;1.50;;;9.40;95.20;;;9.20;81.92;100439.94;5163378;28;20046;-78
2023/03/17 00:20:32;;;;;;;3.42;1.70;;;9.30;95.00;;;9.15;82.30;100436.28;5156603;28;20046;-79
2023/03/17 00:23:08;;;;;;;5.57;2.08;;;9.30;95.20;;;9.11;82.41;100429.19;5164025;28;20042;-78
2023/03/17 00:25:42;;;;;;;3.42;1.83;;;9.30;95.20;;;9.10;82.41;100437.84;5158755;28;20410;-78
2023/03/17 00:28:19;;;;;;;4.25;2.00;;;9.30;95.30;;;9.06;82.56;100421.22;5133204;28;20047;-78
2023/03/17 00:30:57;;;;;;;3.65;2.08;;;9.30;95.50;;;9.05;82.99;100423.78;5159103;28;20047;-78
2023/03/17 00:33:35;;;;;;;3.05;1.50;;;9.20;95.60;;;8.98;83.12;100426.16;5158873;28;20714;-78
2023/03/17 00:36:15;;;;;;;3.60;2.30;;;9.20;96.00;;;9.03;83.31;100420.25;5126950;28;20459;-78
2023/03/17 00:38:49;;;;;;;3.90;1.73;;;9.20;95.80;;;9.04;83.10;100428.09;5156391;28;20046;-78
2023/03/17 00:41:23;;;;;;;4.40;1.88;;;9.20;95.80;;;9.02;82.84;100424.56;5162605;28;20047;-78
2023/03/17 00:43:56;;;;;;;4.10;2.00;;;9.20;95.80;;;9.04;83.05;100435.91;5158140;28;20050;-78
2023/03/17 00:46:34;;;;;;;3.72;1.60;;;9.20;95.90;;;9.00;83.10;100441.84;5142804;28;20058;-78
2023/03/17 00:49:15;;;;;;;2.55;1.70;;;9.20;95.90;;;8.95;83.35;100449.47;5146806;28;20046;-79
2023/03/17 00:51:49;;;;;;;3.85;1.90;;;9.10;95.90;;;8.95;83.07;100449.47;5142775;28;20515;-78
2023/03/17 00:54:23;;;;;;;3.03;1.70;;;9.20;96.00;;;9.01;83.22;100458.31;5157917;28;20061;-78
2023/03/17 00:56:56;;;;;;;3.15;1.60;;;9.20;96.00;;;8.98;83.11;100465.16;5134484;28;20042;-78
2023/03/17 00:59:38;;;;;;;4.97;1.98;;;9.10;96.10;;;8.96;83.16;100469.44;5128419;28;20133;-79
2023/03/17 01:02:12;;;;;;;3.95;1.88;;;9.10;96.20;;;8.95;83.44;100472.88;5151834;28;20042;-79
2023/03/17 01:04:45;;;;;;;3.53;1.90;;;9.10;96.40;;;8.93;83.36;100466.75;5154209;28;20038;-79
2023/03/17 01:07:18;;;;;;;2.15;1.90;;;9.10;96.40;;;8.90;83.83;100461.41;5146780;28;20191;-78
2023/03/17 01:09:55;;;;;;;2.70;1.55;;;9.10;96.50;;;8.91;84.01;100457.97;5149355;28;20054;-79
2023/03/17 01:12:29;;;;;;;3.70;1.70;;;9.00;96.60;;;8.88;83.61;100454.41;5153026;28;20046;-77
2023/03/17 01:15:02;;;;;;;4.50;1.98;;;9.00;96.60;;;8.84;83.88;100453.41;5147420;28;20055;-79
2023/03/17 01:17:38;;;;;;;3.88;1.98;;;9.00;96.70;;;8.81;84.16;100440.31;5154959;28;20034;-78
2023/03/17 01:20:17;;;;;;;3.38;1.60;;;9.00;96.80;;;8.85;84.29;100442.16;5146209;28;20058;-78
2023/03/17 01:22:51;;;;;;;2.83;1.63;;;9.00;96.90;;;8.84;84.48;100455.13;5155395;28;20053;-77
2023/03/17 01:25:27;;;;;;;3.10;1.65;;;9.00;96.90;;;8.87;84.20;100453.53;5126290;28;20055;-78
2023/03/17 01:28:00;;;;;;;4.80;2.15;;;9.00;97.20;;;8.85;84.41;100441.28;5150061;28;20039;-77
2023/03/17 01:30:37;;;;;;;5.65;1.90;;;9.00;97.00;;;8.83;84.26;100441.22;5135859;28;20051;-79
2023/03/17 01:33:16;;;;;;;3.13;1.83;;;9.00;97.00;;;8.82;84.39;100439.47;5166420;28;20090;-79
2023/03/17 01:35:48;;;;;;;2.95;1.67;;;9.00;97.20;;;8.82;84.45;100430.78;5149948;28;20197;-79
2023/03/17 01:38:21;;;;;;;4.30;1.95;;;9.00;97.10;;;8.80;84.65;100433.34;5119208;28;20058;-79
2023/03/17 01:40:55;;;;;;;3.45;1.80;;;9.00;97.20;;;8.74;84.57;100427.91;5139563;28;20058;-79
2023/03/17 01:43:31;;;;;;;3.72;1.70;;;8.90;97.30;;;8.75;84.69;100426.19;5153362;28;20050;-77
2023/03/17 01:46:26;;;;;;;3.42;1.75;;;8.90;97.30;;;8.65;84.84;100411.97;5143535;28;20948;-78
2023/03/17 01:49:14;;;;;;;6.75;1.95;;;8.90;97.40;;;8.60;85.36;100403.13;5153706;28;20042;-78
2023/03/17 01:51:57;;;;;;;2.95;1.60;;;8.80;97.50;;;8.63;85.39;100391.13;5149877;28;20149;-78
2023/03/17 01:54:38;;;;;;;3.30;1.52;;;8.80;97.70;;;8.62;85.75;100385.91;5144776;28;20043;-78
2023/03/17 01:57:18;;;;;;;5.28;1.98;;;8.80;97.90;;;8.56;85.55;100383.06;5163734;28;20078;-78
2023/03/17 01:59:58;;;;;;;4.07;2.00;;;8.70;97.80;;;8.55;85.64;100389.09;5130632;28;20093;-77
2023/03/17 02:02:34;;;;;;;3.75;1.70;;;8.70;98.20;;;8.54;85.68;100395.09;5159699;28;20050;-78
2023/03/17 02:05:12;;;;;;;4.35;2.00;;;8.70;98.00;;;8.49;85.82;100394.97;5148517;28;20061;-78
2023/03/17 02:07:45;;;;;;;4.07;1.90;;;8.70;98.00;;;8.48;85.93;100382.81;5150219;28;20041;-78
2023/03/17 02:10:19;;;;;;;2.85;1.75;;;8.70;98.10;;;8.51;85.93;100388.09;5123873;28;20054;-78
2023/03/17 02:12:58;;;;;;;3.25;1.77;;;8.70;98.10;;;8.54;85.54;100382.13;5136059;28;20046;-78
2023/03/17 02:15:39;;;;;;;5.25;2.17;;;8.70;98.10;;;8.55;85.69;100368.31;5146320;28;20045;-78
2023/03/17 02:18:12;;;;;;;3.15;2.00;;;8.70;98.10;;;8.52;85.33;100366.47;5143572;28;20074;-77
2023/03/17 02:21:39;;;;;;;3.28;2.00;;;8.70;98.00;;;8.50;85.86;100360.34;5131182;28;20173;-78
2023/03/17 02:24:20;;;;;;;3.40;1.80;;;8.70;98.20;;;8.47;86.20;100374.94;5150794;28;20049;-78
2023/03/17 02:26:58;;;;;;;4.28;1.73;;;8.70;98.20;;;8.47;85.70;100370.63;5153495;28;20042;-78
2023/03/17 02:29:34;;;;;;;4.10;2.30;;;8.70;98.10;;;8.50;85.52;100359.47;5146139;28;20051;-78
2023/03/17 02:32:08;;;;;;;4.53;1.80;;;8.70;98.20;;;8.50;85.46;100359.47;5160227;28;20051;-78
2023/03/17 02:34:41;;;;;;;3.80;1.80;;;8.70;98.20;;;8.51;85.65;100353.44;5176637;28;20065;-78
2023/03/17 02:37:17;;;;;;;2.75;1.77;;;8.70;98.20;;;8.51;85.59;100356.03;5154075;28;20042;-79
2023/03/17 02:39:49;;;;;;;5.25;1.90;;;8.70;98.20;;;8.47;85.59;100349.84;5161080;28;20038;-78
2023/03/17 02:42:21;;;;;;;3.22;1.90;;;8.70;98.10;;;8.48;85.54;100355.94;5176520;28;20549;-78
2023/03/17 02:44:54;;;;;;;2.88;2.00;;;8.70;98.10;;;8.49;85.43;100342.13;5128519;28;20051;-79
2023/03/17 02:47:27;;;;;;;3.38;1.92;;;8.60;98.10;;;8.46;86.28;100342.88;5136637;28;20410;-78
2023/03/17 02:50:00;;;;;;;5.35;2.15;;;8.70;98.40;;;8.41;85.74;100334.94;5144548;28;20506;-78
2023/03/17 02:52:34;;;;;;;2.85;1.88;;;8.60;98.20;;;8.41;85.72;100336.63;5144072;28;20054;-79
2023/03/17 02:55:08;;;;;;;3.53;1.95;;;8.60;98.30;;;8.38;85.48;100345.19;5135807;28;20046;-78
2023/03/17 02:57:41;;;;;;;5.97;2.10;;;8.60;98.40;;;8.41;85.57;100354.81;5152379;28;20133;-79
2023/03/17 03:00:15;;;;;;;3.58;1.83;;;8.60;98.40;;;8.45;85.45;100358.41;5155741;28;20047;-78
2023/03/17 03:02:47;;;;;;;4.25;1.90;;;8.60;98.40;;;8.42;85.63;100352.28;5134777;28;20081;-79
2023/03/17 03:05:19;;;;;;;3.88;1.90;;;8.60;98.40;;;8.45;85.25;100356.69;5143815;28;20050;-78
2023/03/17 03:07:54;;;;;;;3.45;1.92;;;8.60;98.40;;;8.41;85.94;100355.72;5164050;28;20038;-78
2023/03/17 03:10:26;;;;;;;5.05;2.20;;;8.60;98.50;;;8.41;85.36;100353.13;5180210;28;20054;-78
2023/03/17 03:13:00;;;;;;;5.95;2.33;;;8.60;98.40;;;8.40;85.43;100363.44;5150965;28;20043;-78
2023/03/17 03:15:32;;;;;;;2.63;1.77;;;8.60;98.40;;;8.35;85.95;100355.50;5159814;28;20056;-78
2023/03/17 03:18:05;;;;;;;4.28;2.13;;;8.50;98.60;;;8.33;86.51;100364.88;5142726;28;20034;-79
2023/03/17 03:20:37;;;;;;;5.30;2.00;;;8.50;98.70;;;8.30;85.78;100359.59;5129433;28;20055;-78
2023/03/17 03:23:12;;;;;;;3.17;1.60;;;8.50;98.80;;;8.33;85.72;100362.28;5160379;28;20889;-78
2023/03/17 03:25:44;;;;;;;2.70;1.95;;;8.50;98.60;;;8.30;86.07;100367.38;5135533;28;20047;-79
2023/03/17 03:28:16;;;;;;;5.50;2.40;;;8.50;98.60;;;8.28;86.04;100363.84;5139036;28;20058;-79
2023/03/17 03:30:49;;;;;;;5.40;2.25;;;8.50;98.60;;;8.26;85.82;100357.69;5144965;28;20557;-78
2023/03/17 03:33:21;;;;;;;4.68;2.15;;;8.50;98.50;;;8.26;86.15;100368.09;5159539;28;20058;-78
2023/03/17 03:35:54;;;;;;;4.93;2.00;;;8.50;98.70;;;8.25;85.58;100362.84;5152393;28;20054;-78
2023/03/17 03:38:29;;;;;;;4.45;2.10;;;8.50;98.60;;;8.25;85.79;100373.22;5135681;28;20089;-79
2023/03/17 03:41:02;;;;;;;5.82;2.05;;;8.50;98.60;;;8.24;85.65;100364.56;5151984;28;20071;-78
2023/03/17 03:43:35;;;;;;;3.78;1.90;;;8.50;98.60;;;8.22;85.68;100363.63;5161023;28;20050;-78
2023/03/17 03:46:11;;;;;;;5.53;2.30;;;8.40;98.50;;;8.23;85.99;100364.50;5165878;28;20050;-79
2023/03/17 03:48:45;;;;;;;4.00;2.00;;;8.40;98.70;;;8.20;85.68;100344.50;5143822;28;20161;-78
2023/03/17 03:51:17;;;;;;;3.72;2.00;;;8.40;98.60;;;8.20;85.71;100344.50;5159945;28;20055;-78
2023/03/17 03:53:51;;;;;;;4.47;2.13;;;8.40;98.60;;;8.12;85.67;100335.53;5155593;28;20387;-78
2023/03/17 03:56:23;;;;;;;4.15;2.10;;;8.40;98.70;;;8.11;86.07;100345.03;5162464;28;20050;-76
2023/03/17 03:58:56;;;;;;;4.07;1.85;;;8.30;98.80;;;8.10;86.02;100353.66;5143429;28;20050;-78
2023/03/17 04:01:29;;;;;;;4.32;2.40;;;8.30;98.80;;;8.12;85.76;100356.31;5161378;28;20514;-78
2023/03/17 04:04:02;;;;;;;5.72;2.20;;;8.30;98.80;;;8.11;86.23;100354.53;5140370;28;20057;-78
2023/03/17 04:06:34;;;;;;;4.78;2.28;;;8.30;98.90;;;8.07;86.05;100350.06;5144177;28;20054;-78
2023/03/17 04:09:09;;;;;;;3.90;2.03;;;8.30;98.80;;;8.10;86.57;100342.41;5137257;28;20109;-79
2023/03/17 04:11:41;;;;;;;6.78;2.50;;;8.30;99.00;;;8.09;86.17;100345.81;5145934;28;20046;-78
2023/03/17 04:14:14;;;;;;;6.10;3.15;;;8.30;98.80;;;8.10;85.92;100338.09;5171695;28;20058;-78
2023/03/17 04:16:46;;;;;;;7.53;3.88;;;8.30;98.80;;;8.09;86.11;100343.22;5153935;28;20054;-78
2023/03/17 04:19:20;;;;;;;6.03;3.28;;;8.30;98.80;;;8.10;86.09;100345.00;5146693;28;20062;-78
2023/03/17 04:21:52;;;;;;;5.25;2.50;;;8.30;98.80;;;8.18;86.31;100346.16;5150212;28;20043;-77
2023/03/17 04:24:27;;;;;;;9.38;4.78;;;8.40;99.00;;;8.13;85.71;100352.88;5158866;28;20073;-78
2023/03/17 04:27:02;;;;;;;5.72;2.40;;;8.30;98.80;;;8.13;85.76;100353.75;5143449;28;20430;-78
2023/03/17 04:29:34;;;;;;;5.78;3.25;;;8.30;98.80;;;8.12;85.57;100353.72;5127115;28;20054;-78
2023/03/17 04:32:07;;;;;;;5.25;2.67;;;8.30;98.80;;;8.08;85.90;100349.22;5173274;28;20108;-78
2023/03/17 04:34:43;;;;;;;14.13;5.78;;;8.30;98.80;;;8.05;86.08;100349.13;5143126;28;20422;-78
2023/03/17 04:37:16;;;;;;;11.70;6.38;;;8.30;98.70;;;8.06;86.24;100356.06;5214522;23;20050;-70
2023/03/17 04:39:51;;;;;;;6.47;2.70;;;8.30;98.90;;;8.02;86.05;100354.19;5159416;28;20046;-71
2023/03/17 04:42:23;;;;;;;4.80;2.50;;;8.30;98.80;;;7.96;86.02;100364.34;5171139;28;20045;-71
2023/03/17 04:44:55;;;;;;;5.35;2.72;;;8.20;98.90;;;7.98;86.39;100363.56;5178413;28;20050;-71
2023/03/17 04:47:27;;;;;;;5.32;3.08;;;8.20;99.10;;;8.02;86.17;100356.78;5172001;28;20049;-72
2023/03/17 04:50:00;;;;;;;5.60;2.55;;;8.20;99.10;;;8.00;86.27;100346.34;5170137;28;20042;-72
2023/03/17 04:52:32;;;;;;;3.40;2.38;;;8.20;99.10;;;7.98;86.47;100348.00;5172276;28;20052;-71
2023/03/17 04:55:08;;;;;;;5.93;2.60;;;8.20;99.20;;;7.96;86.52;100338.41;5170746;28;20065;-70
2023/03/17 04:57:40;;;;;;;5.05;2.38;;;8.20;99.20;;;7.97;86.83;100340.16;5176795;28;20041;-72
2023/03/17 05:00:14;;;;;;;5.65;1.90;;;8.20;99.30;;;7.92;86.48;100336.50;5183061;28;20053;-70
2023/03/17 05:02:46;;;;;;;6.32;2.42;;;8.20;99.20;;;7.89;86.89;100332.97;5164369;28;20049;-70
2023/03/17 05:05:18;;;;;;;3.53;2.10;;;8.10;99.30;;;7.89;86.96;100335.56;5178793;28;20407;-69
2023/03/17 05:07:50;;;;;;;4.90;2.15;;;8.10;99.20;;;7.88;87.01;100336.38;5179871;28;20510;-70
2023/03/17 05:10:24;;;;;;;4.82;2.30;;;8.10;99.30;;;7.93;86.40;100343.47;5164276;28;20125;-71
2023/03/17 05:12:56;;;;;;;6.05;2.38;;;8.10;99.30;;;7.94;86.61;100340.91;5164297;28;20039;-71
2023/03/17 05:15:28;;;;;;;5.68;2.60;;;8.10;99.30;;;7.91;86.86;100337.34;5164457;28;20058;-71
2023/03/17 05:18:00;;;;;;;5.70;2.50;;;8.10;99.40;;;7.88;86.38;100344.16;5176393;28;20486;-71
2023/03/17 05:20:32;;;;;;;6.82;3.05;;;8.10;99.30;;;7.91;86.63;100351.19;5175720;28;20495;-71
2023/03/17 05:23:05;;;;;;;4.45;2.38;;;8.10;99.40;;;7.89;87.21;100347.66;5174526;28;20352;-74
2023/03/17 05:25:40;;;;;;;5.22;2.28;;;8.10;99.40;;;7.89;86.62;100351.16;5167360;28;20069;-71
2023/03/17 05:28:12;;;;;;;;;;;8.10;99.40;;;7.91;86.94;100348.59;5176322;28;20042;-72
2023/03/17 05:30:44;;;;;;;5.00;2.40;;;8.10;99.50;;;7.89;86.54;100345.94;5171640;28;19953;-70
2023/03/17 05:33:17;;;;;;;5.68;2.53;;;8.10;99.50;;;7.88;87.17;100340.69;5171032;28;20561;-71
2023/03/17 05:35:49;;;;;;;5.15;2.42;;;8.10;99.50;;;7.88;86.68;100351.94;5163771;28;20365;-70
2023/03/17 05:38:22;;;;;;;5.45;2.42;;;8.10;99.60;;;7.91;86.66;100350.31;5163266;28;20129;-71
2023/03/17 05:40:55;;;;;;;5.47;2.75;;;8.10;99.60;;;7.86;87.09;100343.22;5164234;28;20050;-70
2023/03/17 05:43:27;;;;;;;5.50;2.25;;;8.10;99.60;;;7.89;87.27;100348.53;5174038;28;20050;-72
2023/03/17 05:45:59;;;;;;;5.28;2.65;;;8.10;99.60;;;7.88;87.25;100345.88;5182432;28;20056;-71
2023/03/17 05:48:32;;;;;;;9.55;2.53;;;8.10;99.60;;;7.87;87.49;100349.28;5166172;28;20092;-71
2023/03/17 05:51:04;;;;;;;4.38;2.70;;;8.10;99.70;;;7.87;87.45;100351.88;5178151;28;20257;-71
2023/03/17 05:53:37;;;;;;;6.53;2.92;;;8.10;99.70;;;7.86;87.43;100345.81;5170004;28;20050;-70
2023/03/17 05:56:10;;;;;;;3.28;2.33;;;8.10;99.70;;;7.87;87.46;100337.19;5167707;28;20043;-71
2023/03/17 05:58:42;;;;;;;3.95;2.13;;;8.10;99.70;;;7.85;87.07;100333.66;5170077;28;20042;-71
2023/03/17 06:01:14;;;;;;;6.13;2.30;;;8.10;99.60;;;7.87;87.23;100324.22;5180943;28;20042;-71
2023/03/17 06:03:47;;;;;;;7.85;3.17;;;8.10;99.90;;;7.88;86.73;100318.19;5183238;28;20042;-70
2023/03/17 06:06:19;;;;;;;5.88;3.28;;;8.10;99.70;;;7.91;87.00;100308.78;5174669;28;20512;-71
2023/03/17 06:08:51;;;;;;;3.97;2.17;;;8.10;99.60;;;7.94;87.16;100332.25;5179391;28;20406;-69
2023/03/17 06:11:25;;;;;;;5.35;2.50;;;8.10;99.70;;;7.97;86.97;100337.56;5170304;28;20111;-71
2023/03/17 06:13:57;;;;;;;3.97;2.30;;;8.20;99.60;;;8.00;86.36;100346.34;5171612;28;20092;-71
2023/03/17 06:16:31;;;;;;;5.00;2.53;;;8.20;99.60;;;8.06;86.16;100350.88;5171078;28;20054;-70
2023/03/17 06:19:04;;;;;;;2.95;1.95;;;8.20;99.50;;;8.18;86.55;100351.34;5179535;28;20033;-72
2023/03/17 06:21:36;;;;;;;5.55;2.50;;;8.30;99.50;;;8.34;85.55;100348.47;5171261;28;20043;-71
2023/03/17 06:24:09;;;;;;;5.25;2.20;;;8.40;99.40;;;8.57;85.48;100351.94;5186994;28;20049;-72
2023/03/17 06:26:43;;;;;;;6.65;2.60;;;8.60;99.30;;;8.90;84.11;100351.34;5175530;28;20120;-73
2023/03/17 06:29:15;;;;;;;4.30;2.38;;;8.80;98.90;;;9.15;82.98;100345.28;5174963;28;20070;-70
2023/03/17 06:31:49;;;;;;;4.80;2.38;;;9.00;98.20;;;9.60;82.01;100347.59;5169812;28;20108;-69
2023/03/17 06:34:23;;;;;;;4.63;2.47;;;9.30;98.10;;;10.05;80.18;100343.81;5171288;28;20042;-69
2023/03/17 06:36:55;;;;;;;3.17;1.90;;;9.70;97.10;;;10.78;78.70;100357.19;5174674;28;20053;-71
2023/03/17 06:39:27;;;;;;;5.20;1.98;;;10.20;96.60;;;11.28;76.06;100339.31;5174617;28;20042;-72
2023/03/17 06:42:01;;;;;;;6.32;2.63;;;10.70;95.10;;;11.77;72.46;100327.44;5174361;28;20450;-73
2023/03/17 06:44:33;;;;;;;3.80;2.15;;;11.10;93.10;;;12.29;71.08;100333.81;5167196;28;20046;-72
2023/03/17 06:47:06;;;;;;;5.43;2.40;;;11.60;91.90;;;12.60;69.79;100330.97;5178369;28;20042;-71
2023/03/17 06:49:38;;;;;;;4.43;2.20;;;11.90;90.60;;;12.82;68.32;100336.59;5184432;28;20136;-72
2023/03/17 06:52:10;;;;;;;3.20;2.00;;;12.20;88.90;;;13.16;68.22;100336.31;5179255;28;20054;-72
2023/03/17 06:54:43;;;;;;;4.13;2.03;;;12.50;88.40;;;13.56;66.97;100331.75;5173654;28;20148;-71
2023/03/17 06:57:19;;;;;;;3.92;2.00;;;12.80;86.30;;;14.19;65.93;100332.66;5166286;28;20070;-71
2023/03/17 06:59:51;;;;;;;3.90;1.80;;;13.20;85.30;;;14.86;64.55;100336.94;5174054;28;20486;-71
2023/03/17 07:02:24;;;;;;;4.13;2.33;;;13.80;83.20;;;15.42;62.49;100336.59;5181552;28;20042;-71
2023/03/17 07:04:56;;;;;;;3.63;1.73;;;14.30;80.00;;;15.74;61.40;100339.50;5165011;28;20046;-60
2023/03/17 07:07:29;;;;;;;3.38;2.03;;;14.70;77.90;;;15.31;60.40;100333.00;5165346;28;20752;-59
2023/03/17 07:10:03;;;;;;;3.58;2.05;;;14.60;75.10;;;14.94;61.30;100334.44;5172164;28;20403;-60
2023/03/17 07:12:36;;;;;;;2.78;1.80;;;14.30;75.50;;;15.28;61.72;100354.00;5172571;28;20049;-60
2023/03/17 07:15:12;;;;;;;5.03;2.28;;;14.50;76.20;;;15.03;60.90;100346.75;5164430;28;20408;-60
2023/03/17 07:17:45;;;;;;;3.97;1.98;;;14.40;74.60;;;15.16;61.47;100343.38;5167680;28;20133;-59
2023/03/17 07:20:18;;;;;;;5.07;2.13;;;14.50;75.30;;;15.10;61.03;100354.69;5172326;28;20043;-59
2023/03/17 07:22:52;;;;;;;4.97;2.13;;;14.50;74.70;;;14.74;61.51;100355.22;5167927;28;20426;-60
2023/03/17 07:25:24;;;;;;;5.00;2.35;;;14.20;74.30;;;14.30;62.06;100342.44;5169129;28;20072;-59
2023/03/17 07:27:58;;;;;;;3.72;1.92;;;14.00;74.70;;;14.43;62.77;100348.69;5180841;28;20041;-58
2023/03/17 07:30:30;;;;;;;2.90;2.08;;;13.90;75.70;;;14.39;62.75;100329.41;5164987;28;20057;-56
2023/03/17 07:33:02;;;;;;;2.90;1.90;;;13.90;75.90;;;14.73;62.84;100331.56;5173012;28;20108;-58
2023/03/17 07:35:37;;;;;;;3.88;2.03;;;14.00;76.40;;;15.07;61.79;100333.69;5172611;28;20042;-58
2023/03/17 07:38:10;;;;;;;3.53;1.80;;;14.30;75.40;;;14.93;61.26;100336.19;5171819;28;20050;-58
2023/03/17 07:40:43;;;;;;;3.70;2.45;;;14.30;74.40;;;14.66;62.05;100325.38;5179054;28;20054;-58
2023/03/17 07:43:17;;;;;;;3.55;1.83;;;14.10;74.70;;;14.38;62.73;100334.66;5164469;28;20050;-58
2023/03/17 07:45:50;;;;;;;4.45;2.00;;;13.90;75.30;;;14.40;63.26;100333.78;5178345;28;20050;-58
2023/03/17 07:48:22;;;;;;;4.82;2.17;;;13.90;76.00;;;14.42;63.25;100331.22;5168271;28;20055;-58
2023/03/17 07:50:55;;;;;;;4.20;2.00;;;13.80;76.00;;;14.78;62.97;100328.13;5164589;28;20049;-58
2023/03/17 07:53:28;;;;;;;2.83;1.80;;;14.00;76.30;;;14.93;62.11;100325.69;5180428;28;20050;-58
2023/03/17 07:56:00;;;;;;;3.53;1.80;;;14.20;75.40;;;15.13;62.13;100327.63;5167768;28;20042;-58
2023/03/17 07:58:35;;;;;;;6.10;1.70;;;14.30;75.50;;;15.04;61.79;100327.50;5179181;28;20161;-58
2023/03/17 08:01:08;;;;;;;3.08;1.83;;;14.30;74.60;;;15.18;61.84;100326.75;5171598;28;20046;-57
2023/03/17 08:03:40;;;;;;;3.60;1.88;;;14.40;74.90;;;15.00;62.12;100315.25;5163737;28;20084;-58
2023/03/17 08:06:13;;;;;;;2.88;1.65;;;14.30;74.70;;;15.11;62.48;100321.44;5171408;28;20058;-58
2023/03/17 08:08:45;;;;;;;5.10;1.65;;;14.40;75.40;;;15.35;62.02;100311.16;5171187;28;20135;-58
2023/03/17 08:11:19;;;;;;;3.83;1.95;;;14.50;75.10;;;15.57;61.69;100308.69;5164577;28;20065;-58
2023/03/17 08:13:53;;;;;;;4.05;2.10;;;14.70;74.90;;;15.62;61.21;100307.00;5177439;28;20046;-58
2023/03/17 08:16:26;;;;;;;4.30;2.00;;;14.80;74.10;;;15.82;61.11;100308.00;5171729;28;20048;-58
2023/03/17 08:18:58;;;;;;;4.65;2.10;;;14.90;74.20;;;15.69;60.54;100314.03;5180712;28;20054;-57
2023/03/17 08:21:31;;;;;;;5.13;2.38;;;14.90;73.20;;;15.35;60.89;100303.28;5170327;28;20050;-59
2023/03/17 08:24:04;;;;;;;6.22;2.20;;;14.70;73.80;;;15.07;62.03;100311.81;5183935;28;20034;-58
2023/03/17 08:26:36;;;;;;;6.45;2.10;;;14.60;73.90;;;14.94;62.70;100308.19;5174600;28;20081;-59
2023/03/17 08:29:10;;;;;;;3.17;1.75;;;14.40;75.10;;;15.07;62.86;100310.06;5171029;28;20046;-57
2023/03/17 08:31:42;;;;;;;3.50;2.00;;;14.50;75.10;;;15.28;64.52;100311.97;5175235;28;20510;-60
2023/03/17 08:34:15;;;;;;;3.65;1.80;;;14.60;77.20;;;15.70;63.42;100310.53;5168863;28;20046;-60
2023/03/17 08:36:47;;;;;;;5.03;1.60;;;14.90;76.40;;;16.29;64.62;100312.59;5163174;28;20050;-59
2023/03/17 08:39:19;;;;;;;3.72;1.70;;;15.40;78.50;;;16.53;60.44;100312.69;5170978;28;20578;-58
2023/03/17 08:41:51;;;;;;;3.95;1.85;;;15.60;73.30;;;16.77;59.12;100313.66;5170691;28;20101;-57
2023/03/17 08:44:25;;;;;;;4.93;2.10;;;15.80;71.80;;;17.49;58.51;100304.03;5162995;28;20141;-59
2023/03/17 08:46:57;;;;;;;2.95;1.80;;;16.30;71.90;;;18.43;58.18;100324.00;5180863;28;20050;-60
2023/03/17 08:49:30;;;;;;;6.07;1.63;;;17.00;72.30;;;19.33;56.56;100316.41;5171877;28;20042;-57
2023/03/17 08:52:02;;;;;;;2.75;1.75;;;17.70;70.80;;;20.01;54.19;100305.16;5172349;28;20129;-62
2023/03/17 08:54:35;;;;;;;3.47;1.88;;;18.40;67.90;;;20.67;51.82;100312.31;5170847;28;20380;-60
2023/03/17 08:57:07;;;;;;;3.28;1.80;;;19.00;66.00;;;21.22;50.82;100305.28;5174540;28;20104;-60
2023/03/17 08:59:41;;;;;;;3.90;1.77;;;19.40;64.10;;;20.77;49.07;100307.75;5170467;28;20035;-58
2023/03/17 09:02:14;;;;;;;4.32;1.73;;;19.40;61.20;;;20.37;50.71;100299.47;5184126;28;20056;-63
2023/03/17 09:04:47;;;;;;;4.00;2.00;;;19.20;62.40;;;19.79;51.05;100296.59;5161366;28;20046;-58
2023/03/17 09:07:19;;;;;;;4.20;2.17;;;18.90;62.20;;;19.57;52.35;100299.47;5176665;28;20056;-58
2023/03/17 09:09:51;;;;;;;4.00;2.10;;;18.80;63.10;;;19.34;51.69;100294.38;5164292;28;20045;-57
2023/03/17 09:12:23;;;;;;;5.22;1.98;;;18.70;62.00;;;19.09;52.33;100297.22;5163613;28;20042;-59
2023/03/17 09:14:57;;;;;;;5.07;2.00;;;18.50;62.60;;;18.85;52.83;100302.69;5162694;28;20035;-60
2023/03/17 09:17:29;;;;;;;4.32;2.53;;;18.30;63.00;;;18.52;53.14;100301.97;5162052;28;20046;-60
2023/03/17 09:20:01;;;;;;;4.05;2.17;;;18.10;62.90;;;18.17;53.96;100310.91;5171133;28;20408;-59
2023/03/17 09:22:33;;;;;;;5.97;2.33;;;17.80;63.50;;;17.93;54.49;100307.47;5163253;28;20044;-59
2023/03/17 09:25:06;;;;;;;5.07;1.90;;;17.50;64.20;;;17.77;54.85;100314.56;5162478;28;20042;-58
2023/03/17 09:27:38;;;;;;;4.22;1.83;;;17.30;64.60;;;17.62;55.10;100321.59;5163887;28;20053;-59
2023/03/17 09:30:13;;;;;;;4.93;2.05;;;17.20;64.90;;;17.39;55.93;100323.34;5170152;28;20515;-59
2023/03/17 09:32:45;;;;;;;;;;;17.00;65.60;;;17.41;56.75;100324.25;5178460;28;20502;-58
2023/03/17 09:35:17;;;;;;;3.78;1.92;;;17.00;66.50;;;17.54;56.30;100319.81;5168735;28;19925;-59
2023/03/17 09:37:50;;;;;;;4.40;1.98;;;17.00;66.30;;;17.72;56.55;100321.59;5164631;28;20054;-58
2023/03/17 09:40:31;;;;;;;5.05;1.83;;;17.10;66.70;;;17.92;57.15;100317.16;5162962;28;20047;-58
2023/03/17 09:43:12;;;;;;;5.75;2.10;;;17.30;67.30;;;18.04;56.10;100308.34;5169718;28;20057;-59
2023/03/17 09:45:45;;;;;;;;;;;17.40;66.50;;;18.04;55.93;100311.84;5163596;28;20046;-60
2023/03/17 09:48:32;;;;;;;4.10;2.17;;;17.40;66.20;;;18.06;56.10;100312.75;5163122;28;19932;-60
2023/03/17 09:51:09;;;;;;;2.63;1.65;;;17.50;66.40;;;18.01;55.91;100300.44;5170887;28;20046;-58
2023/03/17 09:53:49;;;;;;;6.75;2.03;;;17.50;65.90;;;17.74;55.69;100298.78;5165320;28;20403;-58
2023/03/17 09:56:23;;;;;;;3.67;1.90;;;17.30;65.60;;;17.55;56.46;100298.78;5186962;28;20058;-58
2023/03/17 09:59:00;;;;;;;4.03;2.10;;;17.20;66.20;;;17.43;56.21;100290.00;5163704;28;20156;-59
2023/03/17 10:01:33;;;;;;;4.97;2.15;;;17.00;66.00;;;17.40;56.71;100290.84;5163321;28;20508;-58
2023/03/17 10:04:06;;;;;;;4.10;2.10;;;17.00;66.50;;;17.50;56.88;100284.72;5171054;28;20034;-59
2023/03/17 10:06:42;;;;;;;6.80;2.10;;;17.00;66.90;;;17.50;56.68;100289.97;5177332;28;20662;-58
2023/03/17 10:09:25;;;;;;;5.80;1.92;;;17.00;66.70;;;17.61;56.51;100292.63;5176848;28;20054;-58
2023/03/17 10:12:09;;;;;;;3.30;1.85;;;17.10;66.50;;;17.63;56.54;100290.84;5162967;28;20053;-58
2023/03/17 10:14:55;;;;;;;5.45;1.85;;;17.10;66.40;;;17.80;56.16;100304.00;5163472;28;20534;-57
2023/03/17 10:17:33;;;;;;;6.20;1.80;;;17.20;66.40;;;17.83;56.35;100298.72;5165093;28;20154;-58
2023/03/17 10:20:12;;;;;;;4.38;1.42;;;17.30;66.40;;;18.01;56.17;100301.31;5178197;28;20495;-59
2023/03/17 10:22:48;;;;;;;2.88;1.48;;;17.40;66.40;;;18.17;55.62;100305.66;5162448;28;20038;-59
2023/03/17 10:25:23;;;;;;;3.08;1.25;;;17.50;66.00;;;18.41;55.04;100295.88;5162526;28;20132;-59
2023/03/17 10:28:00;;;;;;;1.45;1.00;;;17.70;65.50;;;18.44;54.50;100293.22;5162251;28;20054;-58
2023/03/17 10:30:34;;;;;;;1.35;1.10;;;17.80;64.80;;;18.51;54.97;100283.50;5162806;28;20112;-58
2023/03/17 10:33:07;;;;;;;3.88;1.23;;;17.80;65.20;;;18.54;54.79;100279.09;5170434;28;20049;-60
2023/03/17 10:35:40;;;;;;;2.83;1.20;;;17.90;65.00;;;18.61;56.29;100278.16;5162458;28;20057;-60
2023/03/17 10:38:18;;;;;;;3.03;1.30;;;18.00;66.50;;;18.82;57.00;100290.38;5252351;23;20493;-59
2023/03/17 10:40:58;;;;;;;2.97;1.63;;;18.20;67.10;;;18.94;55.51;100278.84;5146142;28;20062;-59
2023/03/17 10:43:41;;;;;;;6.18;2.00;;;18.40;66.40;;;18.67;55.54;100291.38;5144916;28;20051;-58
2023/03/17 10:46:20;;;;;;;2.92;1.42;;;18.30;65.40;;;18.50;55.48;100297.59;5138421;28;20047;-59
2023/03/17 10:48:57;;;;;;;3.47;1.50;;;18.20;65.10;;;18.29;55.67;100295.94;5145511;28;20553;-58
2023/03/17 10:51:32;;;;;;;3.45;1.30;;;18.00;64.80;;;18.18;55.59;100286.28;5145241;28;20049;-58